Time;durP1;ratioP1;P1;durP2;ratioP2;P2;SDS_P1;SDS_P2;PMS_P1;PMS_P2;Temp;Humidity;BMP_temperature;BMP_pressure;BME280_temperature;BME280_humidity;BME280_pressure;Samples;Min_cycle;Max_cycle;Signal;HPM_P1;HPM_P2
2023/05/14 00:00:48;;;;;;;;;;;;;;;;;;5087351;28;1387;-65
2023/05/14 00:03:13;;;;;;;;;;;;;;;;;;5070446;28;1152;-65
2023/05/14 00:05:38;;;;;;;;;;;;;;;;;;5070601;28;1245;-66
2023/05/14 00:08:03;;;;;;;;;;;;;;;;;;5055062;28;849;-65
2023/05/14 00:10:29;;;;;;;;;;;;;;;;;;5055743;28;999;-71
2023/05/14 00:12:54;;;;;;;;;;;;;;;;;;5087109;28;1249;-71
2023/05/14 00:15:19;;;;;;;;;;;;;;;;;;5055128;28;825;-71
2023/05/14 00:17:45;;;;;;;;;;;;;;;;;;5055265;28;928;-70
2023/05/14 00:20:11;;;;;;;;;;;;;;;;;;5070253;28;1905;-71
2023/05/14 00:22:36;;;;;;;;;;;;;;;;;;5055701;28;1069;-70
2023/05/14 00:25:02;;;;;;;;;;;;;;;;;;5054765;28;821;-70
2023/05/14 00:27:27;;;;;;;;;;;;;;;;;;5054930;28;848;-70
2023/05/14 00:29:52;;;;;;;;;;;;;;;;;;5054800;28;883;-71
2023/05/14 00:32:17;;;;;;;;;;;;;;;;;;5070107;28;853;-70
2023/05/14 00:34:43;;;;;;;;;;;;;;;;;;5054857;28;959;-70
2023/05/14 00:37:08;;;;;;;;;;;;;;;;;;5069488;28;1004;-70
2023/05/14 00:39:33;;;;;;;;;;;;;;;;;;5070279;28;1981;-70
2023/05/14 00:41:59;;;;;;;;;;;;;;;;;;5053937;28;924;-70
2023/05/14 00:44:24;;;;;;;;;;;;;;;;;;5052030;28;1172;-70
2023/05/14 00:46:49;;;;;;;;;;;;;;;;;;5056608;28;1223;-70
2023/05/14 00:49:15;;;;;;;;;;;;;;;;;;5066041;28;1239;-71
2023/05/14 00:51:41;;;;;;;;;;;;;;;;;;5067013;28;1246;-71
2023/05/14 00:54:07;;;;;;;;;;;;;;;;;;5048965;28;1144;-71
2023/05/14 00:56:33;;;;;;;;;;;;;;;;;;5069124;28;1329;-71
2023/05/14 00:58:59;;;;;;;;;;;;;;;;;;5086362;28;1890;-71
2023/05/14 01:01:27;;;;;;;;;;;;;;;;;;5054171;28;892;-70
2023/05/14 01:03:53;;;;;;;;;;;;;;;;;;5054482;28;900;-70
2023/05/14 01:06:49;;;;;;;;;;;;;;;;;;5069412;28;1253;-71
2023/05/14 01:09:14;;;;;;;;;;;;;;;;;;5069375;28;1175;-70
2023/05/14 01:11:49;;;;;;;;;;;;;;;;;;5055385;28;951;-69
2023/05/14 01:14:32;;;;;;;;;;;;;;;;;;5054932;28;907;-70
2023/05/14 01:16:57;;;;;;;;;;;;;;;;;;5055122;28;901;-69
2023/05/14 01:19:40;;;;;;;;;;;;;;;;;;5055033;28;1965;-69
2023/05/14 01:22:05;;;;;;;;;;;;;;;;;;5054336;28;864;-70
2023/05/14 01:24:31;;;;;;;;;;;;;;;;;;5054566;28;1290;-70
2023/05/14 01:27:00;;;;;;;;;;;;;;;;;;5069712;28;1165;-70
2023/05/14 01:29:27;;;;;;;;;;;;;;;;;;5054115;28;790;-69
2023/05/14 01:31:54;;;;;;;;;;;;;;;;;;5086903;28;1105;-70
2023/05/14 01:34:21;;;;;;;;;;;;;;;;;;5053827;28;825;-69
2023/05/14 01:36:47;;;;;;;;;;;;;;;;;;5053922;28;945;-70
2023/05/14 01:39:14;;;;;;;;;;;;;;;;;;5053779;28;1971;-70
2023/05/14 01:41:39;;;;;;;;;;;;;;;;;;5086594;28;1209;-70
2023/05/14 01:44:04;;;;;;;;;;;;;;;;;;5085623;28;1416;-69
2023/05/14 01:46:30;;;;;;;;;;;;;;;;;;5069387;28;959;-70
2023/05/14 01:48:55;;;;;;;;;;;;;;;;;;5059309;28;1187;-69
2023/05/14 01:51:21;;;;;;;;;;;;;;;;;;5065725;28;1347;-70
2023/05/14 01:53:46;;;;;;;;;;;;;;;;;;5050133;28;1168;-70
2023/05/14 01:56:11;;;;;;;;;;;;;;;;;;5062401;28;1007;-69
2023/05/14 01:58:37;;;;;;;;;;;;;;;;;;5077644;28;1969;-70
2023/05/14 02:01:02;;;;;;;;;;;;;;;;;;5087997;28;1151;-69
2023/05/14 02:03:27;;;;;;;;;;;;;;;;;;5085369;28;1196;-70
2023/05/14 02:05:52;;;;;;;;;;;;;;;;;;5053278;28;865;-70
2023/05/14 02:08:18;;;;;;;;;;;;;;;;;;5052419;28;1018;-70
2023/05/14 02:10:43;;;;;;;;;;;;;;;;;;5052624;28;912;-70
2023/05/14 02:13:08;;;;;;;;;;;;;;;;;;5084622;28;1209;-70
2023/05/14 02:15:34;;;;;;;;;;;;;;;;;;5052661;28;955;-70
2023/05/14 02:17:59;;;;;;;;;;;;;;;;;;5052291;28;1957;-69
2023/05/14 02:20:24;;;;;;;;;;;;;;;;;;5052003;28;876;-69
2023/05/14 02:22:50;;;;;;;;;;;;;;;;;;5068450;28;1326;-69
2023/05/14 02:25:15;;;;;;;;;;;;;;;;;;5052778;28;867;-70
2023/05/14 02:27:41;;;;;;;;;;;;;;;;;;5085410;28;1249;-70
2023/05/14 02:30:07;;;;;;;;;;;;;;;;;;5052575;28;825;-70
2023/05/14 02:32:33;;;;;;;;;;;;;;;;;;5067982;28;1284;-70
2023/05/14 02:34:58;;;;;;;;;;;;;;;;;;5053027;28;837;-70
2023/05/14 02:37:23;;;;;;;;;;;;;;;;;;5067901;28;936;-70
2023/05/14 02:39:48;;;;;;;;;;;;;;;;;;5068077;28;1965;-70
2023/05/14 02:42:14;;;;;;;;;;;;;;;;;;5084220;28;1265;-70
2023/05/14 02:44:39;;;;;;;;;;;;;;;;;;5067801;28;884;-70
2023/05/14 02:47:04;;;;;;;;;;;;;;;;;;5067205;28;1225;-70
2023/05/14 02:49:30;;;;;;;;;;;;;;;;;;5051865;28;860;-70
2023/05/14 02:51:55;;;;;;;;;;;;;;;;;;5052170;28;841;-70
2023/05/14 02:54:20;;;;;;;;;;;;;;;;;;5067293;28;859;-70
2023/05/14 02:56:46;;;;;;;;;;;;;;;;;;5067407;28;1242;-70
2023/05/14 02:59:11;;;;;;;;;;;;;;;;;;5083800;28;1973;-70
2023/05/14 03:01:36;;;;;;;;;;;;;;;;;;5052191;28;786;-70
2023/05/14 03:04:01;;;;;;;;;;;;;;;;;;5067331;28;1093;-70
2023/05/14 03:06:27;;;;;;;;;;;;;;;;;;5083919;28;1544;-70
2023/05/14 03:08:52;;;;;;;;;;;;;;;;;;5067531;28;908;-70
2023/05/14 03:11:17;;;;;;;;;;;;;;;;;;5066773;28;888;-70
2023/05/14 03:13:42;;;;;;;;;;;;;;;;;;5055572;28;999;-70
2023/05/14 03:16:08;;;;;;;;;;;;;;;;;;5088111;28;1387;-70
2023/05/14 03:18:35;;;;;;;;;;;;;;;;;;5088572;28;1902;-70
2023/05/14 03:21:00;;;;;;;;;;;;;;;;;;5071341;28;931;-70
2023/05/14 03:23:27;;;;;;;;;;;;;;;;;;5071090;28;1162;-70
2023/05/14 03:25:52;;;;;;;;;;;;;;;;;;5056163;28;892;-70
2023/05/14 03:28:17;;;;;;;;;;;;;;;;;;5055733;28;833;-70
2023/05/14 03:30:43;;;;;;;;;;;;;;;;;;5071719;28;1240;-70
2023/05/14 03:33:08;;;;;;;;;;;;;;;;;;5055721;28;861;-70
2023/05/14 03:35:33;;;;;;;;;;;;;;;;;;5055803;28;994;-70
2023/05/14 03:37:58;;;;;;;;;;;;;;;;;;5056268;28;1969;-70
2023/05/14 03:40:24;;;;;;;;;;;;;;;;;;5070700;28;1058;-70
2023/05/14 03:42:49;;;;;;;;;;;;;;;;;;5056182;28;888;-70
2023/05/14 03:45:15;;;;;;;;;;;;;;;;;;5055252;28;876;-70
2023/05/14 03:47:40;;;;;;;;;;;;;;;;;;5072018;28;1202;-70
2023/05/14 03:50:06;;;;;;;;;;;;;;;;;;5033629;28;872;-70
2023/05/14 03:52:31;;;;;;;;;;;;;;;;;;5035251;28;1103;-70
2023/05/14 03:54:56;;;;;;;;;;;;;;;;;;5050677;28;1319;-70
2023/05/14 03:57:22;;;;;;;;;;;;;;;;;;5034567;28;865;-70
2023/05/14 03:59:47;;;;;;;;;;;;;;;;;;5050480;28;2010;-70
2023/05/14 04:02:12;;;;;;;;;;;;;;;;;;5035243;28;915;-70
2023/05/14 04:04:37;;;;;;;;;;;;;;;;;;5050794;28;1093;-70
2023/05/14 04:07:03;;;;;;;;;;;;;;;;;;5035721;28;944;-70
2023/05/14 04:09:28;;;;;;;;;;;;;;;;;;5035255;28;1015;-70
2023/05/14 04:11:53;;;;;;;;;;;;;;;;;;5050943;28;868;-70
2023/05/14 04:14:19;;;;;;;;;;;;;;;;;;5050596;28;1085;-70
2023/05/14 04:16:44;;;;;;;;;;;;;;;;;;5051275;28;1199;-70
2023/05/14 04:19:09;;;;;;;;;;;;;;;;;;5067315;28;1909;-70
2023/05/14 04:21:34;;;;;;;;;;;;;;;;;;5034857;28;859;-69
2023/05/14 04:24:00;;;;;;;;;;;;;;;;;;5033324;28;1163;-70
2023/05/14 04:26:25;;;;;;;;;;;;;;;;;;5035144;28;834;-70
2023/05/14 04:28:51;;;;;;;;;;;;;;;;;;5050508;28;1249;-70
2023/05/14 04:31:16;;;;;;;;;;;;;;;;;;5050076;28;1229;-71
2023/05/14 04:33:42;;;;;;;;;;;;;;;;;;5034864;28;940;-70
2023/05/14 04:36:07;;;;;;;;;;;;;;;;;;5034640;28;907;-70
2023/05/14 04:38:32;;;;;;;;;;;;;;;;;;5034123;28;1906;-70
2023/05/14 04:40:58;;;;;;;;;;;;;;;;;;5066844;28;1334;-70
2023/05/14 04:43:23;;;;;;;;;;;;;;;;;;5033747;28;872;-70
2023/05/14 04:45:48;;;;;;;;;;;;;;;;;;5066680;28;1214;-70
2023/05/14 04:48:13;;;;;;;;;;;;;;;;;;5034428;28;825;-70
2023/05/14 04:50:39;;;;;;;;;;;;;;;;;;5034324;28;879;-70
2023/05/14 04:53:04;;;;;;;;;;;;;;;;;;5066242;28;891;-70
2023/05/14 04:55:29;;;;;;;;;;;;;;;;;;5033945;28;856;-70
2023/05/14 04:57:55;;;;;;;;;;;;;;;;;;5049597;28;1209;-70
2023/05/14 05:00:20;;;;;;;;;;;;;;;;;;5034083;28;1894;-70
2023/05/14 05:02:46;;;;;;;;;;;;;;;;;;5050036;28;944;-70
2023/05/14 05:05:11;;;;;;;;;;;;;;;;;;5065993;28;1393;-70
2023/05/14 05:07:37;;;;;;;;;;;;;;;;;;5065993;28;1336;-70
2023/05/14 05:10:02;;;;;;;;;;;;;;;;;;5034341;28;781;-70
2023/05/14 05:12:30;;;;;;;;;;;;;;;;;;5033916;28;928;-70
2023/05/14 05:14:56;;;;;;;;;;;;;;;;;;5034417;28;837;-70
2023/05/14 05:17:21;;;;;;;;;;;;;;;;;;5048903;28;841;-70
2023/05/14 05:19:46;;;;;;;;;;;;;;;;;;5049424;28;1910;-70
2023/05/14 05:22:12;;;;;;;;;;;;;;;;;;5033630;28;837;-70
2023/05/14 05:24:37;;;;;;;;;;;;;;;;;;5065380;28;1308;-70
2023/05/14 05:27:04;;;;;;;;;;;;;;;;;;5033805;28;900;-71
2023/05/14 05:29:29;;;;;;;;;;;;;;;;;;5048462;28;1355;-70
2023/05/14 05:31:54;;;;;;;;;;;;;;;;;;5048783;28;1007;-70
2023/05/14 05:34:20;;;;;;;;;;;;;;;;;;5048580;28;914;-70
2023/05/14 05:36:45;;;;;;;;;;;;;;;;;;5033484;28;915;-70
2023/05/14 05:39:11;;;;;;;;;;;;;;;;;;5049604;28;1918;-70
2023/05/14 05:41:36;;;;;;;;;;;;;;;;;;5034104;28;881;-70
2023/05/14 05:44:01;;;;;;;;;;;;;;;;;;5049202;28;968;-70
2023/05/14 05:46:26;;;;;;;;;;;;;;;;;;5032304;28;1352;-70
2023/05/14 05:48:52;;;;;;;;;;;;;;;;;;5049067;28;905;-70
2023/05/14 05:51:17;;;;;;;;;;;;;;;;;;5031376;28;1243;-70
2023/05/14 05:53:42;;;;;;;;;;;;;;;;;;5031291;28;1191;-70
2023/05/14 05:56:08;;;;;;;;;;;;;;;;;;5048116;28;1180;-70
2023/05/14 05:58:33;;;;;;;;;;;;;;;;;;5065256;28;1898;-70
2023/05/14 06:00:58;;;;;;;;;;;;;;;;;;5032125;28;1551;-70
2023/05/14 06:03:24;;;;;;;;;;;;;;;;;;5064473;28;1686;-70
2023/05/14 06:05:51;;;;;;;;;;;;;;;;;;5033012;28;928;-70
2023/05/14 06:08:16;;;;;;;;;;;;;;;;;;5033336;28;837;-70
2023/05/14 06:10:41;;;;;;;;;;;;;;;;;;5048530;28;845;-70
2023/05/14 06:13:07;;;;;;;;;;;;;;;;;;5032856;28;825;-70
2023/05/14 06:15:32;;;;;;;;;;;;;;;;;;5047884;28;892;-70
2023/05/14 06:17:57;;;;;;;;;;;;;;;;;;5064764;28;1621;-70
2023/05/14 06:20:23;;;;;;;;;;;;;;;;;;5033024;28;1910;-69
2023/05/14 06:22:48;;;;;;;;;;;;;;;;;;5048553;28;1058;-69
2023/05/14 06:25:13;;;;;;;;;;;;;;;;;;5032977;28;1016;-70
2023/05/14 06:27:39;;;;;;;;;;;;;;;;;;5047109;28;1155;-70
2023/05/14 06:30:05;;;;;;;;;;;;;;;;;;5044832;28;1240;-70
2023/05/14 06:32:31;;;;;;;;;;;;;;;;;;5049426;28;1152;-70
2023/05/14 06:34:56;;;;;;;;;;;;;;;;;;5051438;28;1219;-70
2023/05/14 06:37:21;;;;;;;;;;;;;;;;;;5052605;28;927;-70
2023/05/14 06:39:49;;;;;;;;;;;;;;;;;;5068222;28;1898;-70
2023/05/14 06:42:15;;;;;;;;;;;;;;;;;;5052473;28;844;-70
2023/05/14 06:44:40;;;;;;;;;;;;;;;;;;5067853;28;1173;-70
2023/05/14 06:47:07;;;;;;;;;;;;;;;;;;5051873;28;841;-70
2023/05/14 06:49:33;;;;;;;;;;;;;;;;;;5085000;28;1139;-70
2023/05/14 06:51:58;;;;;;;;;;;;;;;;;;5052576;28;840;-70
2023/05/14 06:54:24;;;;;;;;;;;;;;;;;;5052495;28;884;-70
2023/05/14 06:56:49;;;;;;;;;;;;;;;;;;5051968;28;900;-70
2023/05/14 06:59:14;;;;;;;;;;;;;;;;;;5067543;28;1965;-70
2023/05/14 07:01:40;;;;;;;;;;;;;;;;;;5051840;28;1153;-70
2023/05/14 07:04:05;;;;;;;;;;;;;;;;;;5048252;28;1105;-70
2023/05/14 07:06:31;;;;;;;;;;;;;;;;;;5058283;28;1152;-70
2023/05/14 07:08:56;;;;;;;;;;;;;;;;;;5029407;28;1160;-69
2023/05/14 07:11:22;;;;;;;;;;;;;;;;;;5040392;28;1197;-70
2023/05/14 07:13:47;;;;;;;;;;;;;;;;;;5047400;28;904;-70
2023/05/14 07:16:12;;;;;;;;;;;;;;;;;;5032616;28;829;-70
2023/05/14 07:18:37;;;;;;;;;;;;;;;;;;5046924;28;1905;-70
2023/05/14 07:21:06;;;;;;;;;;;;;;;;;;5047733;28;1259;-70
2023/05/14 07:23:32;;;;;;;;;;;;;;;;;;5031800;28;1098;-69
2023/05/14 07:25:57;;;;;;;;;;;;;;;;;;5064860;28;1124;-69
2023/05/14 07:28:22;;;;;;;;;;;;;;;;;;5064416;28;1151;-69
2023/05/14 07:30:48;;;;;;;;;;;;;;;;;;5032228;28;941;-69
2023/05/14 07:33:13;;;;;;;;;;;;;;;;;;5032296;28;892;-69
2023/05/14 07:35:38;;;;;;;;;;;;;;;;;;5047143;28;1253;-69
2023/05/14 07:38:05;;;;;;;;;;;;;;;;;;5032549;28;821;-69
2023/05/14 07:40:30;;;;;;;;;;;;;;;;;;5047356;28;1913;-69
2023/05/14 07:42:55;;;;;;;;;;;;;;;;;;5046694;28;1270;-69
2023/05/14 07:45:20;;;;;;;;;;;;;;;;;;5061594;28;1230;-69
2023/05/14 07:47:46;;;;;;;;;;;;;;;;;;5044717;28;1152;-69
2023/05/14 07:50:11;;;;;;;;;;;;;;;;;;5050835;28;1290;-69
2023/05/14 07:52:36;;;;;;;;;;;;;;;;;;5067089;28;1233;-69
2023/05/14 07:55:02;;;;;;;;;;;;;;;;;;5051892;28;943;-69
2023/05/14 07:57:28;;;;;;;;;;;;;;;;;;5052064;28;995;-68
2023/05/14 07:59:53;;;;;;;;;;;;;;;;;;5070154;28;1898;-69
2023/05/14 08:02:18;;;;;;;;;;;;;;;;;;5070147;28;916;-69
2023/05/14 08:04:43;;;;;;;;;;;;;;;;;;5070621;28;1285;-69
2023/05/14 08:07:09;;;;;;;;;;;;;;;;;;5070472;28;1312;-68
2023/05/14 08:09:34;;;;;;;;;;;;;;;;;;5070442;28;825;-68
2023/05/14 08:12:00;;;;;;;;;;;;;;;;;;5054791;28;1019;-69
2023/05/14 08:14:25;;;;;;;;;;;;;;;;;;5070258;28;1213;-69
2023/05/14 08:16:50;;;;;;;;;;;;;;;;;;5055551;28;954;-68
2023/05/14 08:19:16;;;;;;;;;;;;;;;;;;5055820;28;1959;-68
2023/05/14 08:21:41;;;;;;;;;;;;;;;;;;5070619;28;897;-68
2023/05/14 08:24:06;;;;;;;;;;;;;;;;;;5055137;28;1196;-68
2023/05/14 08:26:32;;;;;;;;;;;;;;;;;;5055324;28;903;-67
2023/05/14 08:28:57;;;;;;;;;;;;;;;;;;5070394;28;1071;-67
2023/05/14 08:31:22;;;;;;;;;;;;;;;;;;5070016;28;892;-69
2023/05/14 08:33:48;;;;;;;;;;;;;;;;;;5070664;28;1856;-67
2023/05/14 08:36:13;;;;;;;;;;;;;;;;;;5087072;28;1476;-69
2023/05/14 08:38:38;;;;;;;;;;;;;;;;;;5069555;28;1906;-67
2023/05/14 08:41:04;;;;;;;;;;;;;;;;;;5055007;28;884;-69
2023/05/14 08:43:36;;;;;;;;;;;;;;;;;;5069805;28;962;-68
2023/05/14 08:46:04;;;;;;;;;;;;;;;;;;5054563;28;975;-68
2023/05/14 08:48:31;;;;;;;;;;;;;;;;;;5054349;28;967;-68
2023/05/14 08:50:56;;;;;;;;;;;;;;;;;;5084499;28;1257;-66
2023/05/14 08:53:22;;;;;;;;;;;;;;;;;;5058935;28;1227;-66
2023/05/14 08:55:49;;;;;;;;;;;;;;;;;;5032840;28;1181;-66
2023/05/14 08:58:14;;;;;;;;;;;;;;;;;;5034252;28;1874;-66
2023/05/14 09:00:40;;;;;;;;;;;;;;;;;;5033964;28;848;-66
2023/05/14 09:03:05;;;;;;;;;;;;;;;;;;5034214;28;909;-66
2023/05/14 09:05:32;;;;;;;;;;;;;;;;;;5065424;28;748;-65
2023/05/14 09:07:57;;;;;;;;;;;;;;;;;;5048820;28;1201;-66
2023/05/14 09:10:23;;;;;;;;;;;;;;;;;;5032862;28;858;-66
2023/05/14 09:12:48;;;;;;;;;;;;;;;;;;5033462;28;893;-66
2023/05/14 09:15:13;;;;;;;;;;;;;;;;;;5065543;28;708;-65
2023/05/14 09:17:39;;;;;;;;;;;;;;;;;;5048872;28;1384;-66
2023/05/14 09:20:05;;;;;;;;;;;;;;;;;;5057421;28;1933;-67
2023/05/14 09:22:31;;;;;;;;;;;;;;;;;;5069053;28;1308;-67
2023/05/14 09:25:08;;;;;;;;;;;;;;;;;;5064810;28;1273;-66
2023/05/14 09:27:33;;;;;;;;;;;;;;;;;;5034184;28;833;-67
2023/05/14 09:30:06;;;;;;;;;;;;;;;;;;5049096;28;1015;-66
2023/05/14 09:32:34;;;;;;;;;;;;;;;;;;5034616;28;845;-67
2023/05/14 09:35:08;;;;;;;;;;;;;;;;;;5034220;28;880;-67
2023/05/14 09:37:35;;;;;;;;;;;;;;;;;;5033859;28;1021;-66
2023/05/14 09:40:04;;;;;;;;;;;;;;;;;;5065538;28;1969;-67
2023/05/14 09:42:30;;;;;;;;;;;;;;;;;;5033234;28;904;-66
2023/05/14 09:44:55;;;;;;;;;;;;;;;;;;5032988;28;818;-66
2023/05/14 09:47:21;;;;;;;;;;;;;;;;;;5064419;28;1142;-66
2023/05/14 09:49:47;;;;;;;;;;;;;;;;;;5031661;28;1240;-66
2023/05/14 09:52:12;;;;;;;;;;;;;;;;;;5037452;28;1165;-66
2023/05/14 09:54:38;;;;;;;;;;;;;;;;;;5042012;28;1173;-66
2023/05/14 09:57:04;;;;;;;;;;;;;;;;;;5068169;28;746;-66
2023/05/14 09:59:29;;;;;;;;;;;;;;;;;;5067231;28;1910;-66
2023/05/14 10:01:55;;;;;;;;;;;;;;;;;;5084853;28;1324;-66
2023/05/14 10:04:21;;;;;;;;;;;;;;;;;;5052239;28;820;-66
2023/05/14 10:06:49;;;;;;;;;;;;;;;;;;5068135;28;1077;-66
2023/05/14 10:09:15;;;;;;;;;;;;;;;;;;5052914;28;896;-66
2023/05/14 10:11:49;;;;;;;;;;;;;;;;;;5052217;28;923;-66
2023/05/14 10:14:19;;;;;;;;;;;;;;;;;;5052830;28;969;-66
2023/05/14 10:16:49;;;;;;;;;;;;;;;;;;5052731;28;893;-66
2023/05/14 10:19:16;;;;;;;;;;;;;;;;;;5052656;28;1975;-66
2023/05/14 10:21:44;;;;;;;;;;;;;;;;;;5051169;28;860;-66
2023/05/14 10:24:09;;;;;;;;;;;;;;;;;;5051793;28;1219;-66
2023/05/14 10:26:39;;;;;;;;;;;;;;;;;;5052185;28;829;-66
2023/05/14 10:29:05;;;;;;;;;;;;;;;;;;5084568;28;1414;-66
2023/05/14 10:31:50;;;;;;;;;;;;;;;;;;5051967;28;849;-66
2023/05/14 10:34:32;;;;;;;;;;;;;;;;;;5052316;28;856;-66
2023/05/14 10:36:58;;;;;;;;;;;;;;;;;;5051836;28;914;-66
2023/05/14 10:39:38;;;;;;;;;;;;;;;;;;5051977;28;1934;-65
2023/05/14 10:42:03;;;;;;;;;;;;;;;;;;5052097;28;892;-66
2023/05/14 10:44:30;;;;;;;;;;;;;;;;;;5067661;28;892;-66
2023/05/14 10:46:55;;;;;;;;;;;;;;;;;;5052514;28;904;-65
2023/05/14 10:49:20;;;;;;;;;;;;;;;;;;5052352;28;845;-65
2023/05/14 10:51:48;;;;;;;;;;;;;;;;;;5052828;28;873;-65
2023/05/14 10:54:15;;;;;;;;;;;;;;;;;;5067903;28;1468;-66
2023/05/14 10:56:42;;;;;;;;;;;;;;;;;;5052369;28;915;-66
2023/05/14 10:59:07;;;;;;;;;;;;;;;;;;5052395;28;1972;-66
2023/05/14 11:01:33;;;;;;;;;;;;;;;;;;5052405;28;902;-65
2023/05/14 11:03:58;;;;;;;;;;;;;;;;;;5051887;28;974;-67
2023/05/14 11:06:24;;;;;;;;;;;;;;;;;;5050462;28;1325;-65
2023/05/14 11:08:50;;;;;;;;;;;;;;;;;;5051658;28;1176;-65
2023/05/14 11:11:17;;;;;;;;;;;;;;;;;;5067169;28;1470;-65
2023/05/14 11:13:43;;;;;;;;;;;;;;;;;;5067395;28;1150;-65
2023/05/14 11:16:09;;;;;;;;;;;;;;;;;;5051696;28;1188;-68
2023/05/14 11:18:37;;;;;;;;;;;;;;;;;;5084721;28;1961;-68
2023/05/14 11:21:02;;;;;;;;;;;;;;;;;;5052448;28;853;-68
2023/05/14 11:23:28;;;;;;;;;;;;;;;;;;5083976;28;1303;-68
2023/05/14 11:25:54;;;;;;;;;;;;;;;;;;5052215;28;948;-67
2023/05/14 11:28:21;;;;;;;;;;;;;;;;;;5084778;28;1229;-68
2023/05/14 11:30:46;;;;;;;;;;;;;;;;;;5083968;28;1375;-68
2023/05/14 11:33:11;;;;;;;;;;;;;;;;;;5068359;28;940;-67
2023/05/14 11:35:38;;;;;;;;;;;;;;;;;;5054367;28;1132;-67
2023/05/14 11:38:03;;;;;;;;;;;;;;;;;;5055902;28;957;-68
2023/05/14 11:40:28;;;;;;;;;;;;;;;;;;5055921;28;1910;-68
2023/05/14 11:42:53;;;;;;;;;;;;;;;;;;5055993;28;912;-67
2023/05/14 11:45:25;;;;;;;;;;;;;;;;;;5056149;28;900;-68
2023/05/14 11:47:51;;;;;;;;;;;;;;;;;;5056221;28;849;-67
2023/05/14 11:50:16;;;;;;;;;;;;;;;;;;5056029;28;837;-67
2023/05/14 11:52:42;;;;;;;;;;;;;;;;;;5071484;28;1190;-68
2023/05/14 11:55:11;;;;;;;;;;;;;;;;;;5055349;28;825;-68
2023/05/14 11:57:36;;;;;;;;;;;;;;;;;;5067634;28;1229;-67
2023/05/14 12:00:03;;;;;;;;;;;;;;;;;;5037028;28;1960;-67
2023/05/14 12:02:28;;;;;;;;;;;;;;;;;;5034118;28;1184;-67
2023/05/14 12:04:54;;;;;;;;;;;;;;;;;;5033577;28;1167;-67
2023/05/14 12:07:19;;;;;;;;;;;;;;;;;;5034630;28;872;-63
2023/05/14 12:09:49;;;;;;;;;;;;;;;;;;5035227;28;857;-63
2023/05/14 12:12:17;;;;;;;;;;;;;;;;;;5035373;28;859;-64
2023/05/14 12:14:44;;;;;;;;;;;;;;;;;;5035067;28;892;-63
2023/05/14 12:17:12;;;;;;;;;;;;;;;;;;5067093;28;1217;-65
2023/05/14 12:19:41;;;;;;;;;;;;;;;;;;5034670;28;1886;-64
2023/05/14 12:22:07;;;;;;;;;;;;;;;;;;5034694;28;837;-64
2023/05/14 12:24:32;;;;;;;;;;;;;;;;;;5066742;28;1277;-64
2023/05/14 12:27:00;;;;;;;;;;;;;;;;;;5035018;28;869;-64
2023/05/14 12:29:25;;;;;;;;;;;;;;;;;;5034624;28;927;-64
2023/05/14 12:31:50;;;;;;;;;;;;;;;;;;5035130;28;837;-64
2023/05/14 12:34:16;;;;;;;;;;;;;;;;;;5035014;28;893;-64
2023/05/14 12:36:42;;;;;;;;;;;;;;;;;;5034695;28;928;-64
2023/05/14 12:39:07;;;;;;;;;;;;;;;;;;5050145;28;1909;-64
2023/05/14 12:41:33;;;;;;;;;;;;;;;;;;5066250;28;1333;-63
2023/05/14 12:43:59;;;;;;;;;;;;;;;;;;5049426;28;936;-64
2023/05/14 12:46:25;;;;;;;;;;;;;;;;;;5033343;28;837;-64
2023/05/14 12:48:51;;;;;;;;;;;;;;;;;;5049757;28;1138;-64
2023/05/14 12:51:16;;;;;;;;;;;;;;;;;;5034241;28;888;-64
2023/05/14 12:53:41;;;;;;;;;;;;;;;;;;5066194;28;1515;-63
2023/05/14 12:56:06;;;;;;;;;;;;;;;;;;5049384;28;1155;-64
2023/05/14 12:58:32;;;;;;;;;;;;;;;;;;5034055;28;1903;-64
2023/05/14 13:00:57;;;;;;;;;;;;;;;;;;5066433;28;1392;-64
2023/05/14 13:03:23;;;;;;;;;;;;;;;;;;5065846;28;1396;-64
2023/05/14 13:05:49;;;;;;;;;;;;;;;;;;5033927;28;825;-63
2023/05/14 13:08:16;;;;;;;;;;;;;;;;;;5033462;28;1069;-64
2023/05/14 13:10:42;;;;;;;;;;;;;;;;;;5048621;28;1355;-64
2023/05/14 13:13:07;;;;;;;;;;;;;;;;;;5065291;28;1210;-64
2023/05/14 13:15:34;;;;;;;;;;;;;;;;;;5064285;28;1290;-64
2023/05/14 13:17:59;;;;;;;;;;;;;;;;;;5054017;28;1280;-63
2023/05/14 13:20:26;;;;;;;;;;;;;;;;;;5049924;28;1906;-63
2023/05/14 13:22:51;;;;;;;;;;;;;;;;;;5051678;28;872;-63
2023/05/14 13:25:16;;;;;;;;;;;;;;;;;;5050984;28;1078;-63
2023/05/14 13:27:42;;;;;;;;;;;;;;;;;;5051288;28;931;-63
2023/05/14 13:30:07;;;;;;;;;;;;;;;;;;5051014;28;1048;-64
2023/05/14 13:32:33;;;;;;;;;;;;;;;;;;5051215;28;853;-64
2023/05/14 13:34:58;;;;;;;;;;;;;;;;;;5084565;28;1222;-63
2023/05/14 13:37:24;;;;;;;;;;;;;;;;;;5052975;28;878;-63
2023/05/14 13:39:49;;;;;;;;;;;;;;;;;;5067745;28;1968;-63
2023/05/14 13:42:15;;;;;;;;;;;;;;;;;;5052993;28;1079;-63
2023/05/14 13:44:40;;;;;;;;;;;;;;;;;;5084869;28;1321;-63
2023/05/14 13:47:06;;;;;;;;;;;;;;;;;;5068081;28;908;-64
2023/05/14 13:49:31;;;;;;;;;;;;;;;;;;5068327;28;1158;-64
2023/05/14 13:51:56;;;;;;;;;;;;;;;;;;5042714;28;1203;-64
2023/05/14 13:54:21;;;;;;;;;;;;;;;;;;5032464;28;1177;-70
2023/05/14 13:56:47;;;;;;;;;;;;;;;;;;5048166;28;1204;-70
2023/05/14 13:59:12;;;;;;;;;;;;;;;;;;5048708;28;1889;-69
2023/05/14 14:01:37;;;;;;;;;;;;;;;;;;5064811;28;1294;-69
2023/05/14 14:04:02;;;;;;;;;;;;;;;;;;5033388;28;873;-70
2023/05/14 14:06:29;;;;;;;;;;;;;;;;;;5031513;28;1093;-69
2023/05/14 14:08:55;;;;;;;;;;;;;;;;;;5033115;28;904;-69
2023/05/14 14:11:20;;;;;;;;;;;;;;;;;;5032847;28;1181;-69
2023/05/14 14:13:46;;;;;;;;;;;;;;;;;;5032143;28;1152;-69
2023/05/14 14:16:11;;;;;;;;;;;;;;;;;;5033171;28;912;-69
2023/05/14 14:18:36;;;;;;;;;;;;;;;;;;5032754;28;1959;-68
2023/05/14 14:21:02;;;;;;;;;;;;;;;;;;5048049;28;1217;-69
2023/05/14 14:23:27;;;;;;;;;;;;;;;;;;5047641;28;1153;-68
2023/05/14 14:25:52;;;;;;;;;;;;;;;;;;5032480;28;916;-69
2023/05/14 14:28:17;;;;;;;;;;;;;;;;;;5064308;28;857;-68
2023/05/14 14:30:43;;;;;;;;;;;;;;;;;;5033100;28;1156;-67
2023/05/14 14:33:08;;;;;;;;;;;;;;;;;;5048797;28;1215;-67
2023/05/14 14:35:34;;;;;;;;;;;;;;;;;;5032966;28;833;-67
2023/05/14 14:37:59;;;;;;;;;;;;;;;;;;5048644;28;1221;-67
2023/05/14 14:40:25;;;;;;;;;;;;;;;;;;5031507;28;1977;-68
2023/05/14 14:42:50;;;;;;;;;;;;;;;;;;5048281;28;1188;-67
2023/05/14 14:45:16;;;;;;;;;;;;;;;;;;5038919;28;1231;-67
2023/05/14 14:47:45;;;;;;;;;;;;;;;;;;5068552;28;1181;-69
2023/05/14 14:50:13;;;;;;;;;;;;;;;;;;5085282;28;1201;-68
2023/05/14 14:52:39;;;;;;;;;;;;;;;;;;5084374;28;1537;-69
2023/05/14 14:55:05;;;;;;;;;;;;;;;;;;5052703;28;985;-69
2023/05/14 14:57:31;;;;;;;;;;;;;;;;;;5052084;28;1049;-67
2023/05/14 14:59:56;;;;;;;;;;;;;;;;;;5084911;28;1897;-64
2023/05/14 15:02:21;;;;;;;;;;;;;;;;;;5051937;28;915;-64
2023/05/14 15:04:47;;;;;;;;;;;;;;;;;;5081515;28;1151;-64
2023/05/14 15:07:14;;;;;;;;;;;;;;;;;;5064089;28;1332;-64
2023/05/14 15:09:40;;;;;;;;;;;;;;;;;;5069033;28;1225;-64
2023/05/14 15:12:05;;;;;;;;;;;;;;;;;;5036223;28;833;-63
2023/05/14 15:14:31;;;;;;;;;;;;;;;;;;5037660;28;860;-64
2023/05/14 15:16:56;;;;;;;;;;;;;;;;;;5038432;28;841;-64
2023/05/14 15:19:21;;;;;;;;;;;;;;;;;;5038252;28;1957;-65
2023/05/14 15:21:46;;;;;;;;;;;;;;;;;;5070680;28;1276;-65
2023/05/14 15:24:12;;;;;;;;;;;;;;;;;;5039671;28;1201;-66
2023/05/14 15:26:37;;;;;;;;;;;;;;;;;;5038268;28;809;-65
2023/05/14 15:29:04;;;;;;;;;;;;;;;;;;5054124;28;912;-65
2023/05/14 15:31:30;;;;;;;;;;;;;;;;;;5038431;28;840;-65
2023/05/14 15:33:55;;;;;;;;;;;;;;;;;;5039121;28;884;-65
2023/05/14 15:36:20;;;;;;;;;;;;;;;;;;5038690;28;883;-65
2023/05/14 15:38:46;;;;;;;;;;;;;;;;;;5053441;28;1906;-65
2023/05/14 15:41:11;;;;;;;;;;;;;;;;;;5054072;28;1402;-65
2023/05/14 15:43:36;;;;;;;;;;;;;;;;;;5038192;28;867;-65
2023/05/14 15:46:02;;;;;;;;;;;;;;;;;;5038304;28;873;-65
2023/05/14 15:48:27;;;;;;;;;;;;;;;;;;5037782;28;864;-65
2023/05/14 15:50:52;;;;;;;;;;;;;;;;;;5053457;28;904;-65
2023/05/14 15:53:18;;;;;;;;;;;;;;;;;;5037988;28;1026;-65
2023/05/14 15:55:43;;;;;;;;;;;;;;;;;;5069926;28;1313;-65
2023/05/14 15:58:09;;;;;;;;;;;;;;;;;;5053628;28;754;-65
2023/05/14 16:00:34;;;;;;;;;;;;;;;;;;5037647;28;1966;-65
2023/05/14 16:02:59;;;;;;;;;;;;;;;;;;5038096;28;945;-65
2023/05/14 16:05:25;;;;;;;;;;;;;;;;;;5037914;28;857;-65
2023/05/14 16:07:51;;;;;;;;;;;;;;;;;;5037646;28;955;-65
2023/05/14 16:10:17;;;;;;;;;;;;;;;;;;5053866;28;1091;-65
2023/05/14 16:12:42;;;;;;;;;;;;;;;;;;5053346;28;975;-65
2023/05/14 16:15:07;;;;;;;;;;;;;;;;;;5037994;28;920;-65
2023/05/14 16:17:33;;;;;;;;;;;;;;;;;;5052487;28;1289;-66
2023/05/14 16:19:59;;;;;;;;;;;;;;;;;;5035947;28;1906;-65
2023/05/14 16:22:24;;;;;;;;;;;;;;;;;;5034018;28;817;-65
2023/05/14 16:24:50;;;;;;;;;;;;;;;;;;5033883;28;1233;-65
2023/05/14 16:27:17;;;;;;;;;;;;;;;;;;5034620;28;904;-65
2023/05/14 16:29:43;;;;;;;;;;;;;;;;;;5049406;28;912;-65
2023/05/14 16:32:08;;;;;;;;;;;;;;;;;;5034601;28;825;-65
2023/05/14 16:34:33;;;;;;;;;;;;;;;;;;5033630;28;1063;-65
2023/05/14 16:36:59;;;;;;;;;;;;;;;;;;5049777;28;1293;-65
2023/05/14 16:39:24;;;;;;;;;;;;;;;;;;5049494;28;1917;-65
2023/05/14 16:41:49;;;;;;;;;;;;;;;;;;5049546;28;1221;-65
2023/05/14 16:44:15;;;;;;;;;;;;;;;;;;5049936;28;1294;-65
2023/05/14 16:46:40;;;;;;;;;;;;;;;;;;5049062;28;1140;-65
2023/05/14 16:49:05;;;;;;;;;;;;;;;;;;5034186;28;877;-65
2023/05/14 16:51:31;;;;;;;;;;;;;;;;;;5034012;28;833;-65
2023/05/14 16:53:57;;;;;;;;;;;;;;;;;;5049757;28;1177;-65
2023/05/14 16:56:22;;;;;;;;;;;;;;;;;;5034892;28;952;-67
2023/05/14 16:58:47;;;;;;;;;;;;;;;;;;5033988;28;1977;-67
2023/05/14 17:01:12;;;;;;;;;;;;;;;;;;5050338;28;837;-67